»·PEaware :: PSV880 KLAS-KONT

PSV880 :: KLAS-KONT

FLIGHT INFORMATION

Flight Status: Arrived
Operator:
Power Set Virtual (website)
More flights by this operator :: More flights under this callsign
Pilot: Nigam P. (15980)
Aircraft: AIRBUS A320
(A320)
More flights by this aircraft type
Origin: KLAS McCarran Intl
United States
Destination: KONT Ontario Intl
United States
More flights between these airports :: More routes between these airports
Route: +BOACH8 WHIGG FEYLA JCKIE2
File this flight plan on PilotEdge
Remarks:
Altitude:
(Current/Filed)
28,000ft
Speed:
(Current/Filed)
450kts
Departed: 28-Jul-20 08:24 PM
Arrived: 28-Jul-20 08:58 PM
Distance/Time
Traveled:
171nm/0:34
Distance/Time
To Go:
Arrived

Flight Plot

Page will automatically refresh every two minutes.


Map Options




Map Legend


Flown Route
Filed Route
Departure Airport
Arrival Airport
Navaid (VOR, NDB)
Fix

Horizontal Profiles

Position Reports

Time Latitude Longitude Heading Altitude Ground
Speed
28-Jul-20 20:02 36.100426 -115.159581 16 2195ft 0kts
28-Jul-20 20:03 36.100426 -115.159581 16 2195ft 0kts
28-Jul-20 20:04 36.100426 -115.159581 16 2195ft 0kts
28-Jul-20 20:05 36.100426 -115.159581 16 2195ft 0kts
28-Jul-20 20:06 36.100426 -115.159581 16 2195ft 0kts
28-Jul-20 20:07 36.100426 -115.159581 16 2195ft 0kts
28-Jul-20 20:08 36.100426 -115.159581 16 2195ft 0kts
28-Jul-20 20:09 36.100426 -115.159581 16 2195ft 0kts
28-Jul-20 20:10 36.100426 -115.159581 16 2195ft 0kts
28-Jul-20 20:11 36.100426 -115.159581 16 2195ft 0kts
28-Jul-20 20:12 36.100426 -115.159581 16 2195ft 0kts
28-Jul-20 20:13 36.100426 -115.159581 16 2195ft 0kts
28-Jul-20 20:14 36.100090 -115.159703 16 2195ft 2kts
28-Jul-20 20:15 36.099812 -115.159804 16 2195ft 0kts
28-Jul-20 20:16 36.099814 -115.159803 16 2195ft 0kts
28-Jul-20 20:17 36.099769 -115.159584 173 2195ft 0kts
28-Jul-20 20:18 36.099765 -115.159583 173 2195ft 0kts
28-Jul-20 20:19 36.099256 -115.158270 67 2195ft 9kts
28-Jul-20 20:20 36.098748 -115.154574 115 2195ft 2kts
28-Jul-20 20:21 36.098741 -115.154555 115 2195ft 0kts
28-Jul-20 20:22 36.098640 -115.154299 115 2195ft 6kts
28-Jul-20 20:23 36.088179 -115.159486 206 2195ft 143kts
28-Jul-20 20:24 36.037692 -115.188544 205 4474ft 247kts
28-Jul-20 20:25 35.985005 -115.248607 242 7656ft 283kts
28-Jul-20 20:26 35.915993 -115.296938 204 11150ft 314kts
28-Jul-20 20:27 35.832576 -115.345190 206 14507ft 344kts
28-Jul-20 20:28 35.743650 -115.395719 205 17602ft 361kts
28-Jul-20 20:29 35.649514 -115.447574 204 19457ft 375kts
28-Jul-20 20:30 35.552274 -115.499810 205 21980ft 387kts
28-Jul-20 20:31 35.466472 -115.578964 229 23214ft 391kts
28-Jul-20 20:32 35.392637 -115.678725 229 25399ft 399kts
28-Jul-20 20:33 35.315927 -115.782046 230 26543ft 426kts
28-Jul-20 20:34 35.234564 -115.891103 230 27784ft 440kts
28-Jul-20 20:35 35.151829 -116.000947 230 27863ft 438kts
28-Jul-20 20:36 35.069103 -116.110679 229 27869ft 439kts
28-Jul-20 20:37 34.988349 -116.215689 225 25967ft 404kts
28-Jul-20 20:38 34.907283 -116.306510 224 23848ft 391kts
28-Jul-20 20:39 34.829987 -116.396575 225 21214ft 377kts
28-Jul-20 20:40 34.762423 -116.492793 235 20214ft 373kts
28-Jul-20 20:41 34.702638 -116.594813 234 19207ft 369kts
28-Jul-20 20:42 34.642892 -116.695382 234 17252ft 364kts
28-Jul-20 20:43 34.587228 -116.795202 241 15535ft 350kts
28-Jul-20 20:44 34.539253 -116.896610 234 14053ft 343kts
28-Jul-20 20:45 34.478570 -116.984224 230 12666ft 336kts
28-Jul-20 20:46 34.405472 -117.051954 208 10779ft 317kts
28-Jul-20 20:47 34.334053 -117.096707 208 10307ft 281kts
28-Jul-20 20:48 34.263506 -117.141073 208 10139ft 281kts
28-Jul-20 20:49 34.194292 -117.184623 208 10063ft 280kts
28-Jul-20 20:50 34.126923 -117.226998 208 9971ft 252kts
28-Jul-20 20:51 34.091255 -117.294449 248 8264ft 246kts
28-Jul-20 20:52 34.066132 -117.371482 246 6023ft 236kts
28-Jul-20 20:53 34.054253 -117.437993 267 4487ft 172kts
28-Jul-20 20:54 34.054647 -117.489607 268 2741ft 141kts
28-Jul-20 20:55 34.054878 -117.534634 269 1729ft 132kts
28-Jul-20 20:56 34.054932 -117.578703 269 1079ft 129kts
28-Jul-20 20:57 34.054930 -117.604117 269 958ft 16kts
28-Jul-20 20:58 34.053674 -117.604833 270 958ft 8kts
28-Jul-20 20:59 34.053670 -117.610750 253 958ft 11kts
28-Jul-20 21:00 34.052271 -117.610507 92 958ft 0kts
28-Jul-20 21:01 34.052271 -117.610507 92 958ft 0kts
28-Jul-20 21:03 34.052271 -117.610507 92 958ft 0kts

Navigation Log

Ident Type
Flight plan parsing failed, navigation log unavailable